createdAt,value
2023-03-06T00:01:01.886Z,46.58
2023-03-06T00:04:03.663Z,43.95
2023-03-06T00:07:05.560Z,38.10
2023-03-06T00:10:08.067Z,38.85
2023-03-06T00:13:13.091Z,39.60
2023-03-06T00:16:15.050Z,42.35
2023-03-06T00:19:16.968Z,41.88
2023-03-06T00:22:18.922Z,45.50
2023-03-06T00:25:21.819Z,54.60
2023-03-06T00:28:23.876Z,58.50
2023-03-06T00:31:25.679Z,62.25
2023-03-06T00:34:27.660Z,65.65
2023-03-06T00:37:29.449Z,59.42
2023-03-06T00:40:31.391Z,54.70
2023-03-06T00:43:34.504Z,42.72
2023-03-06T00:46:36.260Z,47.08
2023-03-06T00:49:38.219Z,40.47
2023-03-06T00:52:42.027Z,41.60
2023-03-06T00:55:47.638Z,36.80
2023-03-06T00:58:49.382Z,38.20
2023-03-06T01:01:51.595Z,42.75
2023-03-06T01:04:53.416Z,41.03
2023-03-06T01:07:55.180Z,33.70
2023-03-06T01:10:57.038Z,34.78
2023-03-06T01:13:58.792Z,35.33
2023-03-06T01:17:00.549Z,32.45
2023-03-06T01:20:02.286Z,33.33
2023-03-06T01:23:04.194Z,38.65
2023-03-06T01:26:06.305Z,32.28
2023-03-06T01:29:08.216Z,36.65
2023-03-06T01:32:09.926Z,34.75
2023-03-06T01:35:12.363Z,37.72
2023-03-06T01:38:14.400Z,37.60
2023-03-06T01:41:16.605Z,42.63
2023-03-06T01:44:18.359Z,42.15
2023-03-06T01:47:21.980Z,45.03
2023-03-06T01:50:23.910Z,43.10
2023-03-06T01:53:25.738Z,40.58
2023-03-06T01:56:28.818Z,43.17
2023-03-06T01:59:31.222Z,47.17
2023-03-06T02:02:33.174Z,48.65
2023-03-06T02:05:37.193Z,47.55
2023-03-06T02:08:39.724Z,45.97
2023-03-06T02:11:44.151Z,51.80
2023-03-06T02:14:47.037Z,55.15
2023-03-06T02:17:50.937Z,54.92
2023-03-06T02:20:56.894Z,52.47
2023-03-06T02:24:23.489Z,43.15
2023-03-06T02:27:26.913Z,44.35
2023-03-06T02:30:31.206Z,45.28
2023-03-06T02:33:33.404Z,36.90
2023-03-06T02:36:40.782Z,42.88
2023-03-06T02:39:48.601Z,46.22
2023-03-06T02:42:56.979Z,45.30
2023-03-06T02:45:58.794Z,44.13
2023-03-06T02:49:01.001Z,42.88
2023-03-06T02:52:02.869Z,42.83
2023-03-06T02:55:05.071Z,44.70
2023-03-06T02:58:06.893Z,42.08
2023-03-06T03:01:09.639Z,35.97
2023-03-06T03:04:12.691Z,38.80
2023-03-06T03:07:14.542Z,35.08
2023-03-06T03:10:17.560Z,35.90
2023-03-06T03:13:20.137Z,34.60
2023-03-06T03:16:23.173Z,34.30
2023-03-06T03:19:24.917Z,35.15
2023-03-06T03:22:26.792Z,33.00
2023-03-06T03:25:28.515Z,31.70
2023-03-06T03:28:32.548Z,32.15
2023-03-06T03:31:34.832Z,33.90
2023-03-06T03:34:37.731Z,33.45
2023-03-06T03:37:40.386Z,35.67
2023-03-06T03:40:43.460Z,42.08
2023-03-06T03:43:45.474Z,42.08
2023-03-06T03:46:47.342Z,48.95
2023-03-06T03:49:54.527Z,51.47
2023-03-06T03:52:56.360Z,55.00
2023-03-06T03:55:58.294Z,75.78
2023-03-06T03:59:00.153Z,72.68
2023-03-06T04:02:07.184Z,61.00
2023-03-06T04:05:15.996Z,63.40
2023-03-06T04:08:17.848Z,64.35
2023-03-06T04:11:21.376Z,60.85
2023-03-06T04:14:23.332Z,63.25
2023-03-06T04:17:25.807Z,63.13
2023-03-06T04:20:29.237Z,77.82
2023-03-06T04:23:33.666Z,53.08
2023-03-06T04:26:36.196Z,43.28
2023-03-06T04:29:38.646Z,38.70
2023-03-06T04:32:40.645Z,39.25
2023-03-06T04:35:42.721Z,34.65
2023-03-06T04:38:49.486Z,32.88
2023-03-06T04:41:51.430Z,39.00
2023-03-06T04:44:53.124Z,31.58
2023-03-06T04:47:55.187Z,40.30
2023-03-06T04:50:56.943Z,36.50
2023-03-06T04:53:59.453Z,34.95
2023-03-06T04:57:01.246Z,43.22
2023-03-06T05:00:08.253Z,37.65
2023-03-06T05:03:12.323Z,41.15
2023-03-06T05:06:14.027Z,36.88
2023-03-06T05:09:15.812Z,40.53
2023-03-06T05:12:17.724Z,42.03
2023-03-06T05:15:20.669Z,43.45
2023-03-06T05:18:22.536Z,48.03
2023-03-06T05:21:24.276Z,46.83
2023-03-06T05:24:26.081Z,52.83
2023-03-06T05:27:28.683Z,46.78
2023-03-06T05:30:30.506Z,41.72
2023-03-06T05:33:33.562Z,43.35
2023-03-06T05:36:35.478Z,43.75
2023-03-06T05:39:37.271Z,41.20
2023-03-06T05:42:39.505Z,44.15
2023-03-06T05:45:41.475Z,46.00
2023-03-06T05:48:44.192Z,43.72
2023-03-06T05:51:47.098Z,35.05
2023-03-06T05:54:53.702Z,37.38
2023-03-06T05:57:55.560Z,37.38
2023-03-06T06:00:57.481Z,37.90
2023-03-06T06:03:59.296Z,36.53
2023-03-06T06:07:01.823Z,37.22
2023-03-06T06:10:05.395Z,34.08
2023-03-06T06:13:07.397Z,30.15
2023-03-06T06:16:15.858Z,35.90
2023-03-06T06:19:20.923Z,33.42
2023-03-06T06:22:22.777Z,29.65
2023-03-06T06:25:24.588Z,30.02
2023-03-06T06:28:27.371Z,32.92
2023-03-06T06:31:29.200Z,34.47
2023-03-06T06:34:31.996Z,28.02
2023-03-06T06:37:34.263Z,28.17
2023-03-06T06:40:36.061Z,33.08
2023-03-06T06:43:37.961Z,30.63
2023-03-06T06:50:01.823Z,35.13
2023-03-06T06:53:03.547Z,29.13
2023-03-06T06:56:05.693Z,29.17
2023-03-06T06:59:16.629Z,26.80
2023-03-06T07:02:19.203Z,28.73
2023-03-06T07:05:22.100Z,27.90
2023-03-06T07:08:23.996Z,34.95
2023-03-06T07:11:27.219Z,34.25
2023-03-06T07:14:28.991Z,32.80
2023-03-06T07:17:30.850Z,36.70
2023-03-06T07:20:32.761Z,33.20
2023-03-06T07:23:34.667Z,24.60
2023-03-06T07:26:36.896Z,28.77
2023-03-06T07:29:38.970Z,21.38
2023-03-06T07:32:40.816Z,20.15
2023-03-06T07:35:43.271Z,20.95
2023-03-06T07:38:45.262Z,25.00
2023-03-06T07:41:47.584Z,27.58
2023-03-06T07:44:49.448Z,25.63
2023-03-06T07:47:51.673Z,22.92
2023-03-06T07:51:02.143Z,20.90
2023-03-06T07:54:03.968Z,19.25
2023-03-06T07:57:05.852Z,28.20
2023-03-06T08:00:14.418Z,28.17
2023-03-06T08:03:17.626Z,19.02
2023-03-06T08:06:25.205Z,27.90
2023-03-06T08:09:26.960Z,19.33
2023-03-06T08:12:28.960Z,13.88
2023-03-06T08:15:30.667Z,14.63
2023-03-06T08:18:32.503Z,13.80
2023-03-06T08:21:34.577Z,13.52
2023-03-06T08:24:36.494Z,22.73
2023-03-06T08:27:38.385Z,15.50
2023-03-06T08:30:40.529Z,21.65
2023-03-06T08:33:42.861Z,14.27
2023-03-06T08:36:45.175Z,16.25
2023-03-06T08:39:47.031Z,22.33
2023-03-06T08:42:49.021Z,16.67
2023-03-06T08:45:55.541Z,22.95
2023-03-06T08:48:58.421Z,14.55
2023-03-06T08:52:00.961Z,11.60
2023-03-06T08:55:03.736Z,19.48
2023-03-06T08:58:06.008Z,18.42
2023-03-06T09:01:23.276Z,17.05
2023-03-06T09:04:25.139Z,12.20
2023-03-06T09:07:28.068Z,13.38
2023-03-06T09:10:29.934Z,11.63
2023-03-06T09:13:31.653Z,15.77
2023-03-06T09:16:33.845Z,15.07
2023-03-06T09:19:35.653Z,12.75
2023-03-06T09:22:37.828Z,16.30
2023-03-06T09:25:39.553Z,18.60
2023-03-06T09:28:41.479Z,12.45
2023-03-06T09:31:43.768Z,20.27
2023-03-06T09:34:45.548Z,16.98
2023-03-06T09:37:47.269Z,13.20
2023-03-06T09:40:57.919Z,14.77
2023-03-06T09:44:14.463Z,11.90
2023-03-06T09:47:45.290Z,13.93
2023-03-06T09:51:05.946Z,11.98
2023-03-06T09:54:13.669Z,13.82
2023-03-06T09:57:35.704Z,11.13
2023-03-06T10:00:46.379Z,11.55
2023-03-06T10:04:08.969Z,13.55
2023-03-06T10:07:18.713Z,12.30
2023-03-06T10:10:24.743Z,9.20
2023-03-06T10:13:31.999Z,9.10
2023-03-06T10:16:33.962Z,10.40
2023-03-06T10:19:40.148Z,14.00
2023-03-06T10:23:00.661Z,11.05
2023-03-06T10:26:16.066Z,13.32
2023-03-06T10:29:29.708Z,16.33
2023-03-06T10:32:49.295Z,23.20
2023-03-06T10:35:54.195Z,14.15
2023-03-06T10:38:58.255Z,12.65
2023-03-06T10:42:00.031Z,10.30
2023-03-06T10:45:12.555Z,12.70
2023-03-06T10:48:19.813Z,9.82
2023-03-06T10:51:26.117Z,9.88
2023-03-06T10:54:30.402Z,18.10
2023-03-06T10:57:32.525Z,12.35
2023-03-06T11:00:38.386Z,11.15
2023-03-06T11:03:41.176Z,9.27
2023-03-06T11:06:42.996Z,11.13
2023-03-06T11:09:59.570Z,10.50
2023-03-06T11:13:23.061Z,11.95
2023-03-06T11:16:30.501Z,13.77
2023-03-06T11:19:33.370Z,12.88
2023-03-06T11:22:38.861Z,11.38
2023-03-06T11:26:07.546Z,11.07
2023-03-06T11:29:15.344Z,14.15
2023-03-06T11:32:29.437Z,10.70
2023-03-06T11:35:39.636Z,11.93
2023-03-06T11:38:49.088Z,9.93
2023-03-06T11:42:22.025Z,11.65
2023-03-06T11:45:57.075Z,10.93
2023-03-06T11:49:13.680Z,13.23
2023-03-06T11:52:22.925Z,12.27
2023-03-06T11:55:30.320Z,12.10
2023-03-06T11:58:40.958Z,12.55
2023-03-06T12:01:45.699Z,10.73
2023-03-06T12:05:13.235Z,10.43
2023-03-06T12:08:41.226Z,18.75
2023-03-06T12:11:53.283Z,23.98
2023-03-06T12:15:14.118Z,17.23
2023-03-06T12:18:24.570Z,6.88
2023-03-06T12:21:54.707Z,8.48
2023-03-06T12:25:16.930Z,11.07
2023-03-06T12:28:24.654Z,10.90
2023-03-06T12:31:31.468Z,7.00
2023-03-06T12:34:33.235Z,11.43
2023-03-06T12:37:52.382Z,10.63
2023-03-06T12:40:57.299Z,13.70
2023-03-06T12:44:17.503Z,11.18
2023-03-06T12:47:23.786Z,14.50
2023-03-06T12:50:27.570Z,14.15
2023-03-06T12:53:34.184Z,8.70
2023-03-06T12:56:36.031Z,8.38
2023-03-06T12:59:48.091Z,11.27
2023-03-06T13:03:21.193Z,15.40
2023-03-06T13:06:49.724Z,12.50
2023-03-06T13:10:16.117Z,17.33
2023-03-06T13:13:35.981Z,8.90
2023-03-06T13:16:37.733Z,27.10
2023-03-06T13:19:39.565Z,11.88
2023-03-06T13:22:43.686Z,11.95
2023-03-06T13:25:50.562Z,11.68
2023-03-06T13:28:54.054Z,16.42
2023-03-06T13:32:07.492Z,12.75
2023-03-06T13:35:32.279Z,14.13
2023-03-06T13:39:01.101Z,14.10
2023-03-06T13:42:07.186Z,16.30
2023-03-06T13:45:25.213Z,14.45
2023-03-06T13:48:44.637Z,10.93
2023-03-06T13:51:53.147Z,8.65
2023-03-06T13:55:33.221Z,10.25
2023-03-06T13:58:53.577Z,7.95
2023-03-06T14:02:15.655Z,11.88
2023-03-06T14:05:18.629Z,7.93
2023-03-06T14:08:27.219Z,11.60
2023-03-06T14:11:29.804Z,8.55
2023-03-06T14:14:50.125Z,7.72
2023-03-06T14:18:01.740Z,7.32
2023-03-06T14:21:11.898Z,8.57
2023-03-06T14:24:19.260Z,11.18
2023-03-06T14:27:21.384Z,8.40
2023-03-06T14:30:26.279Z,12.05
2023-03-06T14:33:57.304Z,5.18
2023-03-06T14:37:02.972Z,7.28
2023-03-06T14:40:11.398Z,9.50
2023-03-06T14:43:22.671Z,8.80
2023-03-06T14:46:24.490Z,10.32
2023-03-06T14:49:26.931Z,14.15
2023-03-06T14:56:01.168Z,8.10
2023-03-06T14:59:06.078Z,10.68
2023-03-06T15:02:11.542Z,10.00
2023-03-06T15:05:27.827Z,13.90
2023-03-06T15:08:34.615Z,16.75
2023-03-06T15:12:09.737Z,10.18
2023-03-06T15:15:11.802Z,12.05
2023-03-06T15:18:56.500Z,17.10
2023-03-06T15:21:58.359Z,20.73
2023-03-06T15:25:26.752Z,10.48
2023-03-06T15:28:37.295Z,14.35
2023-03-06T15:31:45.620Z,15.23
2023-03-06T15:34:48.563Z,16.65
2023-03-06T15:37:51.256Z,16.35
2023-03-06T15:41:01.126Z,11.80
2023-03-06T15:44:11.121Z,13.75
2023-03-06T15:47:12.876Z,14.90
2023-03-06T15:50:17.859Z,15.77
2023-03-06T15:53:20.419Z,13.65
2023-03-06T15:56:29.638Z,15.10
2023-03-06T15:59:34.468Z,13.13
2023-03-06T16:02:36.224Z,15.18
2023-03-06T16:05:38.680Z,14.68
2023-03-06T16:08:40.470Z,20.98
2023-03-06T16:11:44.875Z,17.77
2023-03-06T16:14:48.092Z,14.85
2023-03-06T16:17:49.927Z,15.82
2023-03-06T16:20:51.736Z,17.35
2023-03-06T16:23:53.544Z,15.68
2023-03-06T16:26:55.729Z,18.58
2023-03-06T16:29:57.594Z,14.43
2023-03-06T16:32:59.685Z,18.45
2023-03-06T16:36:02.532Z,15.68
2023-03-06T16:39:04.679Z,15.77
2023-03-06T16:42:06.576Z,14.18
2023-03-06T16:45:08.884Z,16.83
2023-03-06T16:48:15.192Z,17.92
2023-03-06T16:51:19.623Z,18.27
2023-03-06T16:54:24.287Z,19.92
2023-03-06T16:57:35.755Z,18.73
2023-03-06T17:00:38.342Z,18.17
2023-03-06T17:03:40.230Z,18.92
2023-03-06T17:06:43.185Z,20.92
2023-03-06T17:09:45.029Z,19.02
2023-03-06T17:12:47.023Z,18.08
2023-03-06T17:15:56.996Z,21.23
2023-03-06T17:18:59.960Z,21.63
2023-03-06T17:22:01.817Z,20.20
2023-03-06T17:25:06.862Z,18.83
2023-03-06T17:28:08.940Z,22.60
2023-03-06T17:31:16.614Z,21.17
2023-03-06T17:34:18.498Z,18.70
2023-03-06T17:37:20.857Z,16.17
2023-03-06T17:40:22.670Z,18.83
2023-03-06T17:43:24.545Z,16.95
2023-03-06T17:46:26.542Z,15.40
2023-03-06T17:49:28.585Z,16.65
2023-03-06T17:52:30.709Z,15.48
2023-03-06T17:55:32.559Z,20.17
2023-03-06T17:58:35.852Z,21.85
2023-03-06T18:01:38.012Z,20.77
2023-03-06T18:04:40.409Z,18.55
2023-03-06T18:07:42.100Z,18.65
2023-03-06T18:10:43.820Z,18.27
2023-03-06T18:13:46.526Z,19.25
2023-03-06T18:16:48.442Z,19.48
2023-03-06T18:19:51.439Z,20.13
2023-03-06T18:22:53.176Z,20.90
2023-03-06T18:26:31.735Z,20.05
2023-03-06T18:29:33.547Z,22.85
2023-03-06T18:32:48.983Z,18.67
2023-03-06T18:36:03.548Z,21.90
2023-03-06T18:39:08.913Z,21.35
2023-03-06T18:42:10.755Z,21.33
2023-03-06T18:45:12.964Z,23.05
2023-03-06T18:48:14.717Z,20.98
2023-03-06T18:51:16.842Z,21.25
2023-03-06T18:54:18.714Z,21.35
2023-03-06T18:57:20.666Z,24.38
2023-03-06T19:00:22.751Z,17.58
2023-03-06T19:03:24.943Z,20.40
2023-03-06T19:06:27.937Z,22.25
2023-03-06T19:09:29.810Z,22.35
2023-03-06T19:12:32.976Z,21.60
2023-03-06T19:15:35.280Z,18.58
2023-03-06T19:18:37.050Z,16.80
2023-03-06T19:21:38.941Z,18.73
2023-03-06T19:24:40.757Z,18.73
2023-03-06T19:27:44.920Z,18.17
2023-03-06T19:30:46.673Z,18.35
2023-03-06T19:33:49.734Z,17.35
2023-03-06T19:36:51.697Z,17.10
2023-03-06T19:39:53.630Z,17.38
2023-03-06T19:42:55.745Z,18.63
2023-03-06T19:46:01.040Z,18.10
2023-03-06T19:49:09.987Z,20.27
2023-03-06T19:52:11.759Z,20.55
2023-03-06T19:55:13.568Z,18.80
2023-03-06T19:58:15.366Z,18.15
2023-03-06T20:01:19.630Z,20.05
2023-03-06T20:04:21.701Z,20.50
2023-03-06T20:07:23.813Z,17.52
2023-03-06T20:10:25.582Z,18.73
2023-03-06T20:13:27.800Z,20.90
2023-03-06T20:16:30.702Z,22.20
2023-03-06T20:19:32.597Z,24.33
2023-03-06T20:22:34.434Z,20.63
2023-03-06T20:25:36.900Z,23.30
2023-03-06T20:28:39.674Z,22.55
2023-03-06T20:31:41.998Z,22.67
2023-03-06T20:34:44.570Z,39.65
2023-03-06T20:37:46.283Z,24.73
2023-03-06T20:40:48.091Z,26.40
2023-03-06T20:43:50.247Z,27.42
2023-03-06T20:46:52.159Z,28.30
2023-03-06T20:49:54.038Z,29.70
2023-03-06T20:52:56.928Z,26.50
2023-03-06T20:55:58.611Z,25.02
2023-03-06T20:59:00.337Z,20.15
2023-03-06T21:02:02.214Z,22.20
2023-03-06T21:05:04.199Z,23.10
2023-03-06T21:08:07.259Z,23.90
2023-03-06T21:11:08.999Z,26.67
2023-03-06T21:14:12.400Z,30.77
2023-03-06T21:17:14.125Z,31.90
2023-03-06T21:20:15.979Z,33.72
2023-03-06T21:23:17.748Z,23.08
2023-03-06T21:26:21.922Z,31.35
2023-03-06T21:29:23.668Z,28.23
2023-03-06T21:32:25.519Z,26.58
2023-03-06T21:35:27.733Z,33.45
2023-03-06T21:38:30.079Z,30.15
2023-03-06T21:41:32.457Z,30.17
2023-03-06T21:44:34.172Z,27.45
2023-03-06T21:47:40.826Z,32.80
2023-03-06T21:50:42.674Z,28.20
2023-03-06T21:53:45.886Z,33.70
2023-03-06T21:56:48.066Z,32.13
2023-03-06T21:59:49.795Z,25.40
2023-03-06T22:02:52.579Z,26.58
2023-03-06T22:05:54.872Z,22.17
2023-03-06T22:08:57.842Z,24.17
2023-03-06T22:11:59.680Z,23.05
2023-03-06T22:15:01.524Z,22.08
2023-03-06T22:18:03.299Z,21.40
2023-03-06T22:21:10.547Z,24.67
2023-03-06T22:24:12.327Z,30.70
2023-03-06T22:27:14.774Z,27.48
2023-03-06T22:30:17.853Z,27.80
2023-03-06T22:33:19.580Z,27.80
2023-03-06T22:36:25.188Z,27.10
2023-03-06T22:39:27.185Z,26.90
2023-03-06T22:42:28.954Z,25.30
2023-03-06T22:45:34.758Z,24.55
2023-03-06T22:48:36.920Z,25.58
2023-03-06T22:51:39.652Z,30.75
2023-03-06T22:54:41.332Z,32.50
2023-03-06T22:57:44.049Z,29.20
2023-03-06T23:00:45.709Z,32.83
2023-03-06T23:03:50.767Z,27.98
2023-03-06T23:06:52.465Z,31.05
2023-03-06T23:09:54.279Z,30.80
2023-03-06T23:13:15.065Z,32.03
2023-03-06T23:16:35.542Z,30.40
2023-03-06T23:19:56.004Z,32.03
2023-03-06T23:23:16.174Z,28.30
2023-03-06T23:26:19.856Z,30.95
2023-03-06T23:29:21.574Z,36.22
2023-03-06T23:32:23.369Z,31.00
2023-03-06T23:35:25.462Z,32.35
2023-03-06T23:38:29.143Z,28.05
2023-03-06T23:41:31.030Z,31.15
2023-03-06T23:44:35.611Z,33.92
2023-03-06T23:47:37.362Z,35.33
2023-03-06T23:50:41.155Z,31.95
2023-03-06T23:53:46.695Z,32.78
2023-03-06T23:56:48.495Z,33.10
2023-03-06T23:59:50.202Z,31.05
